Aviation Digital Data Service (ADDS)

Output produced by METARs form (0453 UTC 23 February 2017)
found at http://aviationweather.gov/adds/metars/
 
KPHF 230332Z 2304/2324 VRB03KT P6SM OVC050 
     FM230800 21003KT 4SM BR OVC050 
     FM231300 20005KT P6SM OVC050 
     FM231700 19007KT P6SM SCT070